Pittsburgh, Pennsylvania
Traffic Map
Current Weather Conditions
Pittsburgh, Pennsylvania
Overcast
Overcast
18°
Feels Like: 18°
Wind Chill: 18° Ceiling: 2000
Heat Index: 18° Visibility: 10mi
Dew Point: 12° Wind: 6mph
Humidity: 70% Direction: ° ()
Pressure: 30.11in Gusts: 0mph
Raw Report DataKAGC 301753Z VRB05KT 10SM OVC020 18/12 A3011 RMK AO2 SLP198 T01780122 10183 20139 56009
Traffic Incident Summary
Active as of:
Severity:
Category:
InformationThere was an issue retrieving the traffic information for this location. Please try a different location or try again shortly.
Advertisements
Track Severe Weather on mobile